Terminal Aerodrome Forecast
Issued by NWS

Home | Current Version | Previous Version | Text Only | Print | Product List | Glossary On
Versions: 1 2 3 4 5 6 7 8 9 10 11 12 13 14 15 16 17 18 19
388
FTUS43 KSGF 261720
TAFJLN
TAF
KJLN 261720Z 2618/2718 17004KT P6SM VCTS BKN120CB
     FM262300 15007KT P6SM VCTS BKN080CB BKN200
     FM270400 17005KT 6SM BR SCT100 BKN250=

USA.gov is the U.S. government's official web portal to all federal, state and local government web resources and services.